sensor_id;sensor_type;location;lat;lon;timestamp;P1;durP1;ratioP1;P2;durP2;ratioP2
5951;SDS011;3001;42.622;23.194;2022-08-06T00:01:08;4.20;;;4.00;;
5951;SDS011;3001;42.622;23.194;2022-08-06T00:03:35;3.80;;;3.70;;
5951;SDS011;3001;42.622;23.194;2022-08-06T00:06:02;3.73;;;3.53;;
5951;SDS011;3001;42.622;23.194;2022-08-06T00:08:29;3.93;;;3.63;;
5951;SDS011;3001;42.622;23.194;2022-08-06T00:10:57;3.57;;;3.37;;
5951;SDS011;3001;42.622;23.194;2022-08-06T00:13:23;4.40;;;4.10;;
5951;SDS011;3001;42.622;23.194;2022-08-06T00:15:50;4.13;;;3.93;;
5951;SDS011;3001;42.622;23.194;2022-08-06T00:18:17;4.40;;;4.10;;
5951;SDS011;3001;42.622;23.194;2022-08-06T00:20:44;4.00;;;3.80;;
5951;SDS011;3001;42.622;23.194;2022-08-06T00:23:10;4.00;;;3.80;;
5951;SDS011;3001;42.622;23.194;2022-08-06T00:25:37;4.20;;;4.00;;
5951;SDS011;3001;42.622;23.194;2022-08-06T00:28:05;3.97;;;3.80;;
5951;SDS011;3001;42.622;23.194;2022-08-06T00:30:32;4.00;;;3.80;;
5951;SDS011;3001;42.622;23.194;2022-08-06T00:32:59;4.07;;;3.90;;
5951;SDS011;3001;42.622;23.194;2022-08-06T00:35:26;4.20;;;3.90;;
5951;SDS011;3001;42.622;23.194;2022-08-06T00:37:52;4.33;;;4.13;;
5951;SDS011;3001;42.622;23.194;2022-08-06T00:40:19;3.97;;;3.77;;
5951;SDS011;3001;42.622;23.194;2022-08-06T00:42:48;4.00;;;3.80;;
5951;SDS011;3001;42.622;23.194;2022-08-06T00:45:17;3.73;;;3.63;;
5951;SDS011;3001;42.622;23.194;2022-08-06T00:47:44;4.50;;;4.20;;
5951;SDS011;3001;42.622;23.194;2022-08-06T00:50:10;3.90;;;3.80;;
5951;SDS011;3001;42.622;23.194;2022-08-06T00:52:37;6.77;;;4.13;;
5951;SDS011;3001;42.622;23.194;2022-08-06T00:55:04;4.00;;;3.80;;
5951;SDS011;3001;42.622;23.194;2022-08-06T00:57:31;4.27;;;3.87;;
5951;SDS011;3001;42.622;23.194;2022-08-06T00:59:58;4.00;;;3.80;;
5951;SDS011;3001;42.622;23.194;2022-08-06T01:02:26;4.27;;;4.07;;
5951;SDS011;3001;42.622;23.194;2022-08-06T01:04:53;4.20;;;4.00;;
5951;SDS011;3001;42.622;23.194;2022-08-06T01:07:20;4.50;;;4.30;;
5951;SDS011;3001;42.622;23.194;2022-08-06T01:09:46;4.50;;;4.23;;
5951;SDS011;3001;42.622;23.194;2022-08-06T01:12:14;4.20;;;3.90;;
5951;SDS011;3001;42.622;23.194;2022-08-06T01:14:40;4.63;;;4.33;;
5951;SDS011;3001;42.622;23.194;2022-08-06T01:17:09;7.27;;;3.57;;
5951;SDS011;3001;42.622;23.194;2022-08-06T01:19:51;4.30;;;4.10;;
5951;SDS011;3001;42.622;23.194;2022-08-06T01:22:31;4.47;;;4.17;;
5951;SDS011;3001;42.622;23.194;2022-08-06T01:25:14;4.33;;;4.13;;
5951;SDS011;3001;42.622;23.194;2022-08-06T01:27:59;4.77;;;4.57;;
5951;SDS011;3001;42.622;23.194;2022-08-06T01:30:32;4.80;;;4.57;;
5951;SDS011;3001;42.622;23.194;2022-08-06T01:33:04;4.20;;;3.90;;
5951;SDS011;3001;42.622;23.194;2022-08-06T01:35:36;4.47;;;4.27;;
5951;SDS011;3001;42.622;23.194;2022-08-06T01:38:07;4.37;;;4.17;;
5951;SDS011;3001;42.622;23.194;2022-08-06T01:40:36;3.87;;;3.67;;
5951;SDS011;3001;42.622;23.194;2022-08-06T01:43:07;3.63;;;3.43;;
5951;SDS011;3001;42.622;23.194;2022-08-06T01:45:38;5.00;;;4.57;;
5951;SDS011;3001;42.622;23.194;2022-08-06T01:48:06;4.13;;;3.93;;
5951;SDS011;3001;42.622;23.194;2022-08-06T01:50:37;4.17;;;3.73;;
5951;SDS011;3001;42.622;23.194;2022-08-06T01:53:06;4.17;;;3.97;;
5951;SDS011;3001;42.622;23.194;2022-08-06T01:55:39;5.67;;;3.90;;
5951;SDS011;3001;42.622;23.194;2022-08-06T01:58:10;4.07;;;3.87;;
5951;SDS011;3001;42.622;23.194;2022-08-06T02:00:42;4.07;;;3.80;;
5951;SDS011;3001;42.622;23.194;2022-08-06T02:03:15;4.20;;;3.80;;
5951;SDS011;3001;42.622;23.194;2022-08-06T02:05:49;4.57;;;4.27;;
5951;SDS011;3001;42.622;23.194;2022-08-06T02:08:18;4.00;;;3.80;;
5951;SDS011;3001;42.622;23.194;2022-08-06T02:10:47;4.30;;;4.10;;
5951;SDS011;3001;42.622;23.194;2022-08-06T02:13:17;4.23;;;4.03;;
5951;SDS011;3001;42.622;23.194;2022-08-06T02:15:47;3.93;;;3.73;;
5951;SDS011;3001;42.622;23.194;2022-08-06T02:18:15;4.23;;;4.03;;
5951;SDS011;3001;42.622;23.194;2022-08-06T02:20:45;4.10;;;3.90;;
5951;SDS011;3001;42.622;23.194;2022-08-06T02:23:17;3.60;;;3.50;;
5951;SDS011;3001;42.622;23.194;2022-08-06T02:25:46;4.20;;;4.00;;
5951;SDS011;3001;42.622;23.194;2022-08-06T02:28:15;4.13;;;3.83;;
5951;SDS011;3001;42.622;23.194;2022-08-06T02:30:46;4.23;;;4.03;;
5951;SDS011;3001;42.622;23.194;2022-08-06T02:33:15;4.30;;;4.10;;
5951;SDS011;3001;42.622;23.194;2022-08-06T02:35:44;3.70;;;3.60;;
5951;SDS011;3001;42.622;23.194;2022-08-06T02:38:14;4.57;;;4.37;;
5951;SDS011;3001;42.622;23.194;2022-08-06T02:40:48;4.17;;;3.87;;
5951;SDS011;3001;42.622;23.194;2022-08-06T02:43:23;4.37;;;4.17;;
5951;SDS011;3001;42.622;23.194;2022-08-06T02:45:57;4.33;;;4.10;;
5951;SDS011;3001;42.622;23.194;2022-08-06T02:48:30;4.07;;;3.87;;
5951;SDS011;3001;42.622;23.194;2022-08-06T02:51:01;3.90;;;3.70;;
5951;SDS011;3001;42.622;23.194;2022-08-06T02:53:35;4.43;;;4.13;;
5951;SDS011;3001;42.622;23.194;2022-08-06T02:56:10;4.00;;;3.80;;
5951;SDS011;3001;42.622;23.194;2022-08-06T02:58:41;4.10;;;3.90;;
5951;SDS011;3001;42.622;23.194;2022-08-06T03:01:11;4.23;;;4.03;;
5951;SDS011;3001;42.622;23.194;2022-08-06T03:03:42;4.57;;;4.37;;
5951;SDS011;3001;42.622;23.194;2022-08-06T03:06:11;4.60;;;4.40;;
5951;SDS011;3001;42.622;23.194;2022-08-06T03:08:41;4.27;;;4.07;;
5951;SDS011;3001;42.622;23.194;2022-08-06T03:11:09;3.67;;;3.47;;
5951;SDS011;3001;42.622;23.194;2022-08-06T03:13:37;4.47;;;4.23;;
5951;SDS011;3001;42.622;23.194;2022-08-06T03:16:06;4.50;;;4.20;;
5951;SDS011;3001;42.622;23.194;2022-08-06T03:18:35;4.43;;;4.13;;
5951;SDS011;3001;42.622;23.194;2022-08-06T03:21:03;4.20;;;4.00;;
5951;SDS011;3001;42.622;23.194;2022-08-06T03:23:31;4.27;;;3.97;;
5951;SDS011;3001;42.622;23.194;2022-08-06T03:25:59;3.87;;;3.77;;
5951;SDS011;3001;42.622;23.194;2022-08-06T03:28:28;4.40;;;4.20;;
5951;SDS011;3001;42.622;23.194;2022-08-06T03:30:56;4.57;;;4.17;;
5951;SDS011;3001;42.622;23.194;2022-08-06T03:33:25;4.40;;;4.17;;
5951;SDS011;3001;42.622;23.194;2022-08-06T03:35:53;4.77;;;4.40;;
5951;SDS011;3001;42.622;23.194;2022-08-06T03:38:22;4.20;;;4.00;;
5951;SDS011;3001;42.622;23.194;2022-08-06T03:40:50;4.73;;;4.53;;
5951;SDS011;3001;42.622;23.194;2022-08-06T03:43:19;4.27;;;3.97;;
5951;SDS011;3001;42.622;23.194;2022-08-06T03:45:50;4.90;;;4.50;;
5951;SDS011;3001;42.622;23.194;2022-08-06T03:48:23;4.63;;;4.33;;
5951;SDS011;3001;42.622;23.194;2022-08-06T03:50:55;4.10;;;3.90;;
5951;SDS011;3001;42.622;23.194;2022-08-06T03:53:24;4.33;;;4.13;;
5951;SDS011;3001;42.622;23.194;2022-08-06T03:55:52;5.27;;;4.83;;
5951;SDS011;3001;42.622;23.194;2022-08-06T03:58:23;5.43;;;4.07;;
5951;SDS011;3001;42.622;23.194;2022-08-06T04:00:53;4.07;;;3.87;;
5951;SDS011;3001;42.622;23.194;2022-08-06T04:03:22;6.00;;;4.53;;
5951;SDS011;3001;42.622;23.194;2022-08-06T04:05:51;4.70;;;4.30;;
5951;SDS011;3001;42.622;23.194;2022-08-06T04:08:19;4.27;;;4.03;;
5951;SDS011;3001;42.622;23.194;2022-08-06T04:10:47;4.63;;;4.43;;
5951;SDS011;3001;42.622;23.194;2022-08-06T04:13:17;4.20;;;4.00;;
5951;SDS011;3001;42.622;23.194;2022-08-06T04:15:45;4.50;;;4.30;;
5951;SDS011;3001;42.622;23.194;2022-08-06T04:18:13;4.27;;;4.00;;
5951;SDS011;3001;42.622;23.194;2022-08-06T04:20:43;4.27;;;4.07;;
5951;SDS011;3001;42.622;23.194;2022-08-06T04:23:13;4.47;;;4.27;;
5951;SDS011;3001;42.622;23.194;2022-08-06T04:25:41;4.37;;;4.17;;
5951;SDS011;3001;42.622;23.194;2022-08-06T04:28:12;4.60;;;4.20;;
5951;SDS011;3001;42.622;23.194;2022-08-06T04:30:40;4.07;;;3.87;;
5951;SDS011;3001;42.622;23.194;2022-08-06T04:33:09;4.27;;;4.07;;
5951;SDS011;3001;42.622;23.194;2022-08-06T04:35:39;4.20;;;4.00;;
5951;SDS011;3001;42.622;23.194;2022-08-06T04:38:07;5.83;;;5.17;;
5951;SDS011;3001;42.622;23.194;2022-08-06T04:40:36;4.97;;;4.77;;
5951;SDS011;3001;42.622;23.194;2022-08-06T04:43:04;4.33;;;4.13;;
5951;SDS011;3001;42.622;23.194;2022-08-06T04:45:32;5.23;;;4.80;;
5951;SDS011;3001;42.622;23.194;2022-08-06T04:48:00;4.83;;;4.60;;
5951;SDS011;3001;42.622;23.194;2022-08-06T04:50:30;5.60;;;5.30;;
5951;SDS011;3001;42.622;23.194;2022-08-06T04:53:04;4.60;;;4.40;;
5951;SDS011;3001;42.622;23.194;2022-08-06T04:55:31;4.70;;;4.50;;
5951;SDS011;3001;42.622;23.194;2022-08-06T04:58:00;4.27;;;4.10;;
5951;SDS011;3001;42.622;23.194;2022-08-06T05:00:27;4.43;;;4.23;;
5951;SDS011;3001;42.622;23.194;2022-08-06T05:02:54;5.57;;;5.17;;
5951;SDS011;3001;42.622;23.194;2022-08-06T05:05:21;4.33;;;4.13;;
5951;SDS011;3001;42.622;23.194;2022-08-06T05:07:49;7.27;;;4.83;;
5951;SDS011;3001;42.622;23.194;2022-08-06T05:10:18;5.17;;;4.57;;
5951;SDS011;3001;42.622;23.194;2022-08-06T05:12:49;4.60;;;4.40;;
5951;SDS011;3001;42.622;23.194;2022-08-06T05:15:24;9.00;;;4.97;;
5951;SDS011;3001;42.622;23.194;2022-08-06T05:17:55;4.50;;;4.10;;
5951;SDS011;3001;42.622;23.194;2022-08-06T05:20:24;5.13;;;4.60;;
5951;SDS011;3001;42.622;23.194;2022-08-06T05:22:53;4.77;;;4.47;;
5951;SDS011;3001;42.622;23.194;2022-08-06T05:25:24;5.20;;;4.07;;
5951;SDS011;3001;42.622;23.194;2022-08-06T05:27:51;4.50;;;4.30;;
5951;SDS011;3001;42.622;23.194;2022-08-06T05:30:18;5.70;;;5.13;;
5951;SDS011;3001;42.622;23.194;2022-08-06T05:32:47;5.67;;;5.27;;
5951;SDS011;3001;42.622;23.194;2022-08-06T05:35:15;5.23;;;4.83;;
5951;SDS011;3001;42.622;23.194;2022-08-06T05:37:42;4.97;;;4.67;;
5951;SDS011;3001;42.622;23.194;2022-08-06T05:40:08;4.70;;;4.50;;
5951;SDS011;3001;42.622;23.194;2022-08-06T05:42:35;5.27;;;4.90;;
5951;SDS011;3001;42.622;23.194;2022-08-06T05:45:02;5.40;;;5.10;;
5951;SDS011;3001;42.622;23.194;2022-08-06T05:47:31;4.53;;;4.03;;
5951;SDS011;3001;42.622;23.194;2022-08-06T05:50:04;5.27;;;4.97;;
5951;SDS011;3001;42.622;23.194;2022-08-06T05:52:35;5.60;;;4.97;;
5951;SDS011;3001;42.622;23.194;2022-08-06T05:55:11;5.67;;;5.17;;
5951;SDS011;3001;42.622;23.194;2022-08-06T05:57:43;5.00;;;4.80;;
5951;SDS011;3001;42.622;23.194;2022-08-06T06:00:15;5.70;;;5.40;;
5951;SDS011;3001;42.622;23.194;2022-08-06T06:02:44;5.23;;;4.90;;
5951;SDS011;3001;42.622;23.194;2022-08-06T06:05:14;5.33;;;5.10;;
5951;SDS011;3001;42.622;23.194;2022-08-06T06:07:41;4.80;;;4.60;;
5951;SDS011;3001;42.622;23.194;2022-08-06T06:10:09;6.00;;;5.67;;
5951;SDS011;3001;42.622;23.194;2022-08-06T06:12:37;13.87;;;5.10;;
5951;SDS011;3001;42.622;23.194;2022-08-06T06:15:05;5.73;;;5.43;;
5951;SDS011;3001;42.622;23.194;2022-08-06T06:17:48;6.73;;;5.20;;
5951;SDS011;3001;42.622;23.194;2022-08-06T06:20:25;5.70;;;4.83;;
5951;SDS011;3001;42.622;23.194;2022-08-06T06:23:04;10.63;;;6.03;;
5951;SDS011;3001;42.622;23.194;2022-08-06T06:25:37;7.07;;;4.77;;
5951;SDS011;3001;42.622;23.194;2022-08-06T06:28:12;5.07;;;4.87;;
5951;SDS011;3001;42.622;23.194;2022-08-06T06:30:49;5.03;;;4.83;;
5951;SDS011;3001;42.622;23.194;2022-08-06T06:33:20;5.53;;;5.23;;
5951;SDS011;3001;42.622;23.194;2022-08-06T06:35:53;5.70;;;5.40;;
5951;SDS011;3001;42.622;23.194;2022-08-06T06:38:28;6.40;;;6.10;;
5951;SDS011;3001;42.622;23.194;2022-08-06T06:41:06;6.27;;;5.77;;
5951;SDS011;3001;42.622;23.194;2022-08-06T06:43:40;7.13;;;6.53;;
5951;SDS011;3001;42.622;23.194;2022-08-06T06:46:15;6.27;;;5.97;;
5951;SDS011;3001;42.622;23.194;2022-08-06T06:48:46;6.00;;;5.70;;
5951;SDS011;3001;42.622;23.194;2022-08-06T06:51:19;6.10;;;5.73;;
5951;SDS011;3001;42.622;23.194;2022-08-06T06:53:53;6.30;;;5.90;;
5951;SDS011;3001;42.622;23.194;2022-08-06T06:56:23;7.53;;;7.00;;
5951;SDS011;3001;42.622;23.194;2022-08-06T06:58:55;6.17;;;5.87;;
5951;SDS011;3001;42.622;23.194;2022-08-06T07:01:26;6.40;;;5.90;;
5951;SDS011;3001;42.622;23.194;2022-08-06T07:03:56;6.90;;;6.37;;
5951;SDS011;3001;42.622;23.194;2022-08-06T07:06:26;6.67;;;6.00;;
5951;SDS011;3001;42.622;23.194;2022-08-06T07:08:54;6.40;;;6.10;;
5951;SDS011;3001;42.622;23.194;2022-08-06T07:11:24;6.53;;;6.23;;
5951;SDS011;3001;42.622;23.194;2022-08-06T07:13:53;7.13;;;6.43;;
5951;SDS011;3001;42.622;23.194;2022-08-06T07:16:23;6.30;;;6.00;;
5951;SDS011;3001;42.622;23.194;2022-08-06T07:18:52;6.00;;;5.70;;
5951;SDS011;3001;42.622;23.194;2022-08-06T07:21:20;6.77;;;6.47;;
5951;SDS011;3001;42.622;23.194;2022-08-06T07:23:50;6.47;;;5.97;;
5951;SDS011;3001;42.622;23.194;2022-08-06T07:26:19;6.67;;;6.13;;
5951;SDS011;3001;42.622;23.194;2022-08-06T07:28:49;6.10;;;5.80;;
5951;SDS011;3001;42.622;23.194;2022-08-06T07:31:17;6.23;;;5.87;;
5951;SDS011;3001;42.622;23.194;2022-08-06T07:33:48;5.93;;;5.53;;
5951;SDS011;3001;42.622;23.194;2022-08-06T07:36:16;5.77;;;5.37;;
5951;SDS011;3001;42.622;23.194;2022-08-06T07:38:44;5.70;;;5.30;;
5951;SDS011;3001;42.622;23.194;2022-08-06T07:41:14;7.10;;;6.50;;
5951;SDS011;3001;42.622;23.194;2022-08-06T07:43:43;5.90;;;5.47;;
5951;SDS011;3001;42.622;23.194;2022-08-06T07:46:16;6.07;;;5.77;;
5951;SDS011;3001;42.622;23.194;2022-08-06T07:48:49;6.03;;;5.63;;
5951;SDS011;3001;42.622;23.194;2022-08-06T07:51:19;6.20;;;5.80;;
5951;SDS011;3001;42.622;23.194;2022-08-06T07:53:49;6.57;;;6.27;;
5951;SDS011;3001;42.622;23.194;2022-08-06T07:56:18;6.03;;;5.72;;
5951;SDS011;3001;42.622;23.194;2022-08-06T07:58:47;6.93;;;6.35;;
5951;SDS011;3001;42.622;23.194;2022-08-06T08:01:15;5.25;;;5.05;;
5951;SDS011;3001;42.622;23.194;2022-08-06T08:03:42;7.15;;;6.35;;
5951;SDS011;3001;42.622;23.194;2022-08-06T08:06:27;6.72;;;6.32;;
5951;SDS011;3001;42.622;23.194;2022-08-06T08:08:57;5.80;;;5.50;;
5951;SDS011;3001;42.622;23.194;2022-08-06T08:11:29;5.18;;;4.90;;
5951;SDS011;3001;42.622;23.194;2022-08-06T08:13:57;5.97;;;5.68;;
5951;SDS011;3001;42.622;23.194;2022-08-06T08:16:27;5.32;;;5.03;;
5951;SDS011;3001;42.622;23.194;2022-08-06T08:18:54;5.97;;;4.70;;
5951;SDS011;3001;42.622;23.194;2022-08-06T08:21:21;5.20;;;4.90;;
5951;SDS011;3001;42.622;23.194;2022-08-06T08:23:48;7.68;;;5.15;;
5951;SDS011;3001;42.622;23.194;2022-08-06T08:26:16;5.00;;;4.55;;
5951;SDS011;3001;42.622;23.194;2022-08-06T08:28:44;4.75;;;4.43;;
5951;SDS011;3001;42.622;23.194;2022-08-06T08:31:11;4.90;;;4.60;;
5951;SDS011;3001;42.622;23.194;2022-08-06T08:33:38;5.07;;;4.68;;
5951;SDS011;3001;42.622;23.194;2022-08-06T08:36:05;4.60;;;4.40;;
5951;SDS011;3001;42.622;23.194;2022-08-06T08:38:34;4.53;;;4.32;;
5951;SDS011;3001;42.622;23.194;2022-08-06T08:41:03;4.75;;;4.53;;
5951;SDS011;3001;42.622;23.194;2022-08-06T08:43:33;4.85;;;4.43;;
5951;SDS011;3001;42.622;23.194;2022-08-06T08:46:03;4.68;;;4.47;;
5951;SDS011;3001;42.622;23.194;2022-08-06T08:48:33;4.43;;;4.22;;
5951;SDS011;3001;42.622;23.194;2022-08-06T08:51:02;4.20;;;4.10;;
5951;SDS011;3001;42.622;23.194;2022-08-06T08:53:29;4.50;;;4.30;;
5951;SDS011;3001;42.622;23.194;2022-08-06T08:56:02;4.57;;;4.38;;
5951;SDS011;3001;42.622;23.194;2022-08-06T08:58:31;4.22;;;4.13;;
5951;SDS011;3001;42.622;23.194;2022-08-06T09:01:03;3.97;;;3.83;;
5951;SDS011;3001;42.622;23.194;2022-08-06T09:03:33;4.53;;;4.18;;
5951;SDS011;3001;42.622;23.194;2022-08-06T09:06:01;4.43;;;4.13;;
5951;SDS011;3001;42.622;23.194;2022-08-06T09:08:29;6.18;;;4.47;;
5951;SDS011;3001;42.622;23.194;2022-08-06T09:10:57;3.80;;;3.60;;
5951;SDS011;3001;42.622;23.194;2022-08-06T09:13:24;4.72;;;4.43;;
5951;SDS011;3001;42.622;23.194;2022-08-06T09:15:51;5.03;;;3.90;;
5951;SDS011;3001;42.622;23.194;2022-08-06T09:18:19;4.15;;;3.95;;
5951;SDS011;3001;42.622;23.194;2022-08-06T09:20:47;4.20;;;4.00;;
5951;SDS011;3001;42.622;23.194;2022-08-06T09:23:14;4.18;;;3.80;;
5951;SDS011;3001;42.622;23.194;2022-08-06T09:25:42;3.90;;;3.80;;
5951;SDS011;3001;42.622;23.194;2022-08-06T09:28:10;4.22;;;3.90;;
5951;SDS011;3001;42.622;23.194;2022-08-06T09:30:56;4.13;;;3.92;;
5951;SDS011;3001;42.622;23.194;2022-08-06T09:33:25;4.22;;;3.92;;
5951;SDS011;3001;42.622;23.194;2022-08-06T09:35:58;4.72;;;3.83;;
5951;SDS011;3001;42.622;23.194;2022-08-06T09:38:27;4.60;;;4.30;;
5951;SDS011;3001;42.622;23.194;2022-08-06T09:41:01;4.18;;;3.92;;
5951;SDS011;3001;42.622;23.194;2022-08-06T09:43:34;4.43;;;4.22;;
5951;SDS011;3001;42.622;23.194;2022-08-06T09:46:02;4.45;;;4.25;;
5951;SDS011;3001;42.622;23.194;2022-08-06T09:48:31;4.00;;;3.90;;
5951;SDS011;3001;42.622;23.194;2022-08-06T09:50:58;4.68;;;4.47;;
5951;SDS011;3001;42.622;23.194;2022-08-06T09:53:25;4.28;;;4.07;;
5951;SDS011;3001;42.622;23.194;2022-08-06T09:55:53;4.60;;;4.30;;
5951;SDS011;3001;42.622;23.194;2022-08-06T09:58:32;4.32;;;4.00;;
5951;SDS011;3001;42.622;23.194;2022-08-06T10:01:13;5.75;;;4.40;;
5951;SDS011;3001;42.622;23.194;2022-08-06T10:03:42;4.68;;;4.10;;
5951;SDS011;3001;42.622;23.194;2022-08-06T10:06:11;4.40;;;4.13;;
5951;SDS011;3001;42.622;23.194;2022-08-06T10:08:39;5.88;;;3.75;;
5951;SDS011;3001;42.622;23.194;2022-08-06T10:11:08;4.05;;;3.85;;
5951;SDS011;3001;42.622;23.194;2022-08-06T10:13:35;6.80;;;3.90;;
5951;SDS011;3001;42.622;23.194;2022-08-06T10:16:13;4.32;;;4.03;;
5951;SDS011;3001;42.622;23.194;2022-08-06T10:18:43;4.53;;;4.10;;
5951;SDS011;3001;42.622;23.194;2022-08-06T10:21:13;4.35;;;4.05;;
5951;SDS011;3001;42.622;23.194;2022-08-06T10:23:44;4.22;;;4.03;;
5951;SDS011;3001;42.622;23.194;2022-08-06T10:26:12;4.85;;;4.55;;
5951;SDS011;3001;42.622;23.194;2022-08-06T10:28:40;4.18;;;4.00;;
5951;SDS011;3001;42.622;23.194;2022-08-06T10:31:10;4.03;;;3.90;;
5951;SDS011;3001;42.622;23.194;2022-08-06T10:33:40;4.00;;;3.70;;
5951;SDS011;3001;42.622;23.194;2022-08-06T10:36:10;4.40;;;4.20;;
5951;SDS011;3001;42.622;23.194;2022-08-06T10:38:40;4.38;;;4.18;;
5951;SDS011;3001;42.622;23.194;2022-08-06T10:41:10;3.97;;;3.78;;
5951;SDS011;3001;42.622;23.194;2022-08-06T10:43:39;3.83;;;3.63;;
5951;SDS011;3001;42.622;23.194;2022-08-06T10:46:07;3.72;;;3.63;;
5951;SDS011;3001;42.622;23.194;2022-08-06T10:48:39;4.75;;;4.40;;
5951;SDS011;3001;42.622;23.194;2022-08-06T10:51:07;4.53;;;4.32;;
5951;SDS011;3001;42.622;23.194;2022-08-06T10:53:37;4.35;;;4.15;;
5951;SDS011;3001;42.622;23.194;2022-08-06T10:56:06;4.45;;;4.28;;
5951;SDS011;3001;42.622;23.194;2022-08-06T10:58:35;4.32;;;4.13;;
5951;SDS011;3001;42.622;23.194;2022-08-06T11:01:04;4.30;;;4.10;;
5951;SDS011;3001;42.622;23.194;2022-08-06T11:03:36;4.55;;;4.18;;
5951;SDS011;3001;42.622;23.194;2022-08-06T11:06:16;4.93;;;4.70;;
5951;SDS011;3001;42.622;23.194;2022-08-06T11:08:58;5.00;;;4.70;;
5951;SDS011;3001;42.622;23.194;2022-08-06T11:11:40;4.50;;;4.30;;
5951;SDS011;3001;42.622;23.194;2022-08-06T11:14:17;5.10;;;4.30;;
5951;SDS011;3001;42.622;23.194;2022-08-06T11:16:55;4.88;;;4.60;;
5951;SDS011;3001;42.622;23.194;2022-08-06T11:19:36;4.85;;;4.35;;
5951;SDS011;3001;42.622;23.194;2022-08-06T11:22:06;5.30;;;4.72;;
5951;SDS011;3001;42.622;23.194;2022-08-06T11:24:33;4.38;;;4.10;;
5951;SDS011;3001;42.622;23.194;2022-08-06T11:30:15;4.45;;;3.58;;
5951;SDS011;3001;42.622;23.194;2022-08-06T11:32:43;3.97;;;3.88;;
5951;SDS011;3001;42.622;23.194;2022-08-06T11:38:06;4.25;;;4.00;;
5951;SDS011;3001;42.622;23.194;2022-08-06T11:40:52;4.45;;;4.25;;
5951;SDS011;3001;42.622;23.194;2022-08-06T11:43:41;3.83;;;3.72;;
5951;SDS011;3001;42.622;23.194;2022-08-06T11:46:19;3.75;;;3.65;;
5951;SDS011;3001;42.622;23.194;2022-08-06T11:51:50;3.78;;;3.58;;
5951;SDS011;3001;42.622;23.194;2022-08-06T11:54:20;4.25;;;3.90;;
5951;SDS011;3001;42.622;23.194;2022-08-06T12:02:52;4.45;;;4.28;;
5951;SDS011;3001;42.622;23.194;2022-08-06T12:08:10;4.70;;;4.50;;
5951;SDS011;3001;42.622;23.194;2022-08-06T12:13:44;4.50;;;4.20;;
5951;SDS011;3001;42.622;23.194;2022-08-06T12:16:24;4.50;;;4.20;;
5951;SDS011;3001;42.622;23.194;2022-08-06T12:18:55;4.80;;;4.40;;
5951;SDS011;3001;42.622;23.194;2022-08-06T12:21:22;5.45;;;5.05;;
5951;SDS011;3001;42.622;23.194;2022-08-06T12:23:49;5.15;;;4.72;;
5951;SDS011;3001;42.622;23.194;2022-08-06T12:26:17;5.05;;;4.85;;
5951;SDS011;3001;42.622;23.194;2022-08-06T12:28:46;5.15;;;4.65;;
5951;SDS011;3001;42.622;23.194;2022-08-06T12:31:13;3.95;;;3.85;;
5951;SDS011;3001;42.622;23.194;2022-08-06T12:33:54;6.22;;;4.70;;
5951;SDS011;3001;42.622;23.194;2022-08-06T12:36:24;4.43;;;4.30;;
5951;SDS011;3001;42.622;23.194;2022-08-06T12:38:53;5.97;;;5.00;;
5951;SDS011;3001;42.622;23.194;2022-08-06T12:41:21;5.20;;;5.00;;
5951;SDS011;3001;42.622;23.194;2022-08-06T12:43:49;4.57;;;4.43;;
5951;SDS011;3001;42.622;23.194;2022-08-06T12:46:16;4.43;;;4.20;;
5951;SDS011;3001;42.622;23.194;2022-08-06T12:48:44;4.85;;;4.53;;
5951;SDS011;3001;42.622;23.194;2022-08-06T12:51:13;4.68;;;4.45;;
5951;SDS011;3001;42.622;23.194;2022-08-06T12:53:40;5.30;;;4.90;;
5951;SDS011;3001;42.622;23.194;2022-08-06T12:56:09;5.22;;;4.95;;
5951;SDS011;3001;42.622;23.194;2022-08-06T12:58:37;6.15;;;4.78;;
5951;SDS011;3001;42.622;23.194;2022-08-06T13:01:07;4.53;;;4.38;;
5951;SDS011;3001;42.622;23.194;2022-08-06T13:03:39;4.82;;;4.63;;
5951;SDS011;3001;42.622;23.194;2022-08-06T13:06:11;4.28;;;4.18;;
5951;SDS011;3001;42.622;23.194;2022-08-06T13:08:40;5.78;;;5.47;;
5951;SDS011;3001;42.622;23.194;2022-08-06T13:11:07;5.22;;;4.88;;
5951;SDS011;3001;42.622;23.194;2022-08-06T13:13:36;5.43;;;5.13;;
5951;SDS011;3001;42.622;23.194;2022-08-06T13:16:04;4.72;;;4.53;;
5951;SDS011;3001;42.622;23.194;2022-08-06T13:18:34;4.82;;;4.63;;
5951;SDS011;3001;42.622;23.194;2022-08-06T13:21:01;6.50;;;4.72;;
5951;SDS011;3001;42.622;23.194;2022-08-06T13:23:30;4.68;;;4.47;;
5951;SDS011;3001;42.622;23.194;2022-08-06T13:25:58;5.32;;;4.90;;
5951;SDS011;3001;42.622;23.194;2022-08-06T13:28:36;5.13;;;4.65;;
5951;SDS011;3001;42.622;23.194;2022-08-06T13:31:07;4.40;;;4.20;;
5951;SDS011;3001;42.622;23.194;2022-08-06T13:33:43;4.82;;;4.63;;
5951;SDS011;3001;42.622;23.194;2022-08-06T13:36:26;4.32;;;4.13;;
5951;SDS011;3001;42.622;23.194;2022-08-06T13:38:53;4.20;;;4.00;;
5951;SDS011;3001;42.622;23.194;2022-08-06T13:41:23;3.70;;;3.60;;
5951;SDS011;3001;42.622;23.194;2022-08-06T13:43:51;3.88;;;3.70;;
5951;SDS011;3001;42.622;23.194;2022-08-06T13:46:20;4.35;;;4.07;;
5951;SDS011;3001;42.622;23.194;2022-08-06T13:48:51;4.80;;;4.47;;
5951;SDS011;3001;42.622;23.194;2022-08-06T13:51:19;4.50;;;4.30;;
5951;SDS011;3001;42.622;23.194;2022-08-06T13:53:47;4.50;;;4.20;;
5951;SDS011;3001;42.622;23.194;2022-08-06T13:56:14;4.47;;;4.13;;
5951;SDS011;3001;42.622;23.194;2022-08-06T13:58:42;4.30;;;4.10;;
5951;SDS011;3001;42.622;23.194;2022-08-06T14:01:10;4.28;;;4.07;;
5951;SDS011;3001;42.622;23.194;2022-08-06T14:03:40;4.50;;;4.30;;
5951;SDS011;3001;42.622;23.194;2022-08-06T14:06:07;4.53;;;4.40;;
5951;SDS011;3001;42.622;23.194;2022-08-06T14:08:34;5.35;;;5.15;;
5951;SDS011;3001;42.622;23.194;2022-08-06T14:11:01;4.82;;;4.63;;
5951;SDS011;3001;42.622;23.194;2022-08-06T14:13:28;4.78;;;4.57;;
5951;SDS011;3001;42.622;23.194;2022-08-06T14:15:54;5.07;;;4.88;;
5951;SDS011;3001;42.622;23.194;2022-08-06T14:18:21;4.97;;;4.63;;
5951;SDS011;3001;42.622;23.194;2022-08-06T14:20:49;5.07;;;4.88;;
5951;SDS011;3001;42.622;23.194;2022-08-06T14:23:16;5.03;;;4.82;;
5951;SDS011;3001;42.622;23.194;2022-08-06T14:25:44;5.38;;;5.07;;
5951;SDS011;3001;42.622;23.194;2022-08-06T14:28:10;5.28;;;4.88;;
5951;SDS011;3001;42.622;23.194;2022-08-06T14:30:37;5.72;;;5.28;;
5951;SDS011;3001;42.622;23.194;2022-08-06T14:33:05;5.18;;;4.97;;
5951;SDS011;3001;42.622;23.194;2022-08-06T14:35:34;5.18;;;4.88;;
5951;SDS011;3001;42.622;23.194;2022-08-06T14:38:03;4.93;;;4.55;;
5951;SDS011;3001;42.622;23.194;2022-08-06T14:40:30;5.00;;;4.70;;
5951;SDS011;3001;42.622;23.194;2022-08-06T14:43:14;4.82;;;4.63;;
5951;SDS011;3001;42.622;23.194;2022-08-06T14:46:04;5.38;;;4.90;;
5951;SDS011;3001;42.622;23.194;2022-08-06T14:48:31;5.40;;;5.10;;
5951;SDS011;3001;42.622;23.194;2022-08-06T14:50:58;5.30;;;5.10;;
5951;SDS011;3001;42.622;23.194;2022-08-06T14:53:26;5.30;;;5.10;;
5951;SDS011;3001;42.622;23.194;2022-08-06T14:55:52;5.65;;;5.35;;
5951;SDS011;3001;42.622;23.194;2022-08-06T14:58:19;6.00;;;5.47;;
5951;SDS011;3001;42.622;23.194;2022-08-06T15:00:46;5.78;;;5.30;;
5951;SDS011;3001;42.622;23.194;2022-08-06T15:03:13;5.45;;;5.10;;
5951;SDS011;3001;42.622;23.194;2022-08-06T15:05:41;5.57;;;5.28;;
5951;SDS011;3001;42.622;23.194;2022-08-06T15:08:08;5.45;;;5.25;;
5951;SDS011;3001;42.622;23.194;2022-08-06T15:10:36;5.30;;;4.78;;
5951;SDS011;3001;42.622;23.194;2022-08-06T15:13:04;5.57;;;5.30;;
5951;SDS011;3001;42.622;23.194;2022-08-06T15:15:31;5.38;;;5.07;;
5951;SDS011;3001;42.622;23.194;2022-08-06T15:17:58;5.82;;;5.53;;
5951;SDS011;3001;42.622;23.194;2022-08-06T15:20:25;5.30;;;5.10;;
5951;SDS011;3001;42.622;23.194;2022-08-06T15:22:52;5.78;;;5.35;;
5951;SDS011;3001;42.622;23.194;2022-08-06T15:25:19;5.78;;;5.57;;
5951;SDS011;3001;42.622;23.194;2022-08-06T15:27:47;5.40;;;5.20;;
5951;SDS011;3001;42.622;23.194;2022-08-06T15:30:14;7.78;;;5.80;;
5951;SDS011;3001;42.622;23.194;2022-08-06T15:32:41;5.82;;;5.63;;
5951;SDS011;3001;42.622;23.194;2022-08-06T15:35:08;6.43;;;5.93;;
5951;SDS011;3001;42.622;23.194;2022-08-06T15:37:35;5.50;;;5.30;;